NTAA Airport Information

Runway Information
Runway 04 Length 11360 ft width 148 ft
Elevation 5 ft Threshold 1120 ft Heading 54
Runway 22 Length 11360 ft Width 148 ft
Elevation 5 ft Threshold 390 ft Heading 234
Airport Frequencies
Type APP Name APP Frequency 118.1 MHZ
Type ATIS Name ATIS Frequency 128.8 MHZ
Type GND Name GND Frequency 121.9 MHZ
Type TWR Name TWR Frequency 118.1 MHZ
Airport Navaids
Type NDB Name Tahiti Faaa Frequency 305 KHZ
Type VOR-DME Name Tahiti Faaa Frequency 112900 KHZ
Airport Weather Information & NOTAM
ADDS - METARS form results

(0147 UTC 27 May 2020)
Data provider http://aviationweather.gov/metar/data/
 
METAR text: NTAA 270130Z 32005KT 9999 -RA FEW016 BKN020 BKN046 26/24 Q1014 TEMPO 32016G26KT 3000 SHRA BKN016CB OVC030
Conditions at: NTAA (TAHITI-FAAA POLY, WS) observed 0130 UTC 27 May 2020
Temperature: 26.0°C (79°F)
Dewpoint: 24.0°C (75°F) [RH = 89%]
Pressure (altimeter): 29.94 inches Hg (1014.0 mb)
Winds: from the NW (320 degrees) at 6 MPH (5 knots; 2.6 m/s)
Visibility: 6 or more miles (10+ km)
Ceiling: 2000 feet AGL
Clouds: few clouds at 1600 feet AGL
broken clouds at 2000 feet AGL
broken clouds at 4600 feet AGL
Weather: -RA  (light rain)

METAR text: NTAA 270100Z 35012KT 9999 VCSH FEW013 BKN046 27/25 Q1014 NOSIG
Conditions at: NTAA (TAHITI-FAAA POLY, WS) observed 0100 UTC 27 May 2020
Temperature: 27.0°C (81°F)
Dewpoint: 25.0°C (77°F) [RH = 89%]
Pressure (altimeter): 29.94 inches Hg (1014.0 mb)
Winds: from the N (350 degrees) at 14 MPH (12 knots; 6.2 m/s)
Visibility: 6 or more miles (10+ km)
Ceiling: 4600 feet AGL
Clouds: few clouds at 1300 feet AGL
broken clouds at 4600 feet AGL
Weather: VCSH  (showers in vicinity)

Forecast for: AMD
Text: TAF AMD NTAA 262302Z 2623/2724 VRB06KT 9999 FEW020TCU SCT020 BKN300
Forecast period: 2300 UTC 26 May 2020 to 0000 UTC 28 May 2020
Forecast type: FROM: standard forecast or significant change
Winds: variable direction winds at 7 MPH (6 knots; 3.1 m/s)
Visibility: 6 or more miles 10+ km)
Ceiling: 30000 feet AGL
Clouds: few clouds at 2000 feet AGL
scattered clouds at 2000 feet AGL
broken clouds at 30000 feet AGL
Weather: no significant weather forecast for this period
Text: PROB30
Forecast period: 2300 UTC 26 May 2020 to 0400 UTC 27 May 2020
Forecast type: TEMPORARY: The following changes expected for less than half the time period
Winds: from the NE (40 degrees) at 21 MPH (18 knots; 9.3 m/s)
gusting to 32 MPH (28 knots; 14.4 m/s)
Visibility: 0.93 miles (1.50 km)
Ceiling: 1600 feet AGL
Clouds: few clouds at 1000 feet AGL
broken clouds at 1600 feet AGL
broken clouds at 4500 feet AGL
Weather: +TSRA  (heavy rain associated with thunderstorm(s))